createdAt,value
2023-05-09T00:00:11.018Z,14.61
2023-05-09T00:02:38.660Z,14.56
2023-05-09T00:05:07.710Z,14.48
2023-05-09T00:07:36.555Z,14.50
2023-05-09T00:10:04.138Z,14.59
2023-05-09T00:12:31.957Z,14.62
2023-05-09T00:14:59.469Z,14.60
2023-05-09T00:17:28.528Z,14.72
2023-05-09T00:19:56.331Z,14.94
2023-05-09T00:22:23.842Z,14.96
2023-05-09T00:24:52.970Z,14.99
2023-05-09T00:27:20.634Z,14.97
2023-05-09T00:29:48.071Z,14.93
2023-05-09T00:32:15.635Z,14.91
2023-05-09T00:34:43.301Z,14.80
2023-05-09T00:37:10.754Z,14.71
2023-05-09T00:39:38.229Z,14.62
2023-05-09T00:42:07.144Z,14.58
2023-05-09T00:44:34.614Z,14.56
2023-05-09T00:47:02.110Z,14.62
2023-05-09T00:49:29.618Z,14.59
2023-05-09T00:51:57.234Z,14.56
2023-05-09T00:54:24.698Z,14.47
2023-05-09T00:56:52.237Z,14.54
2023-05-09T00:59:21.912Z,14.56
2023-05-09T01:01:49.452Z,14.47
2023-05-09T01:04:17.360Z,14.52
2023-05-09T01:06:49.860Z,14.57
2023-05-09T01:09:26.347Z,14.62
2023-05-09T01:12:03.232Z,14.64
2023-05-09T01:14:55.467Z,14.64
2023-05-09T01:17:32.017Z,14.64
2023-05-09T01:20:06.066Z,14.66
2023-05-09T01:22:35.919Z,14.60
2023-05-09T01:25:10.929Z,14.69
2023-05-09T01:27:45.257Z,14.58
2023-05-09T01:30:14.632Z,14.55
2023-05-09T01:32:44.136Z,14.60
2023-05-09T01:35:14.676Z,14.61
2023-05-09T01:37:44.085Z,14.66
2023-05-09T01:40:15.278Z,14.69
2023-05-09T01:42:45.055Z,14.70
2023-05-09T01:45:15.027Z,14.73
2023-05-09T01:47:43.107Z,14.73
2023-05-09T01:50:12.459Z,14.66
2023-05-09T01:52:41.152Z,14.61
2023-05-09T01:55:09.916Z,14.52
2023-05-09T01:57:38.474Z,14.34
2023-05-09T02:00:07.883Z,14.13
2023-05-09T02:02:37.153Z,14.30
2023-05-09T02:05:05.061Z,14.16
2023-05-09T02:07:33.309Z,14.06
2023-05-09T02:10:01.663Z,14.02
2023-05-09T02:12:29.301Z,13.89
2023-05-09T02:14:56.796Z,13.99
2023-05-09T02:17:24.299Z,14.00
2023-05-09T02:19:53.148Z,14.08
2023-05-09T02:22:20.648Z,14.14
2023-05-09T02:24:48.160Z,14.15
2023-05-09T02:27:15.914Z,14.17
2023-05-09T02:29:45.709Z,14.14
2023-05-09T02:32:16.468Z,14.07
2023-05-09T02:34:44.821Z,14.07
2023-05-09T02:37:14.658Z,14.29
2023-05-09T02:39:42.246Z,14.40
2023-05-09T02:42:12.227Z,14.30
2023-05-09T02:44:39.712Z,14.08
2023-05-09T02:47:08.325Z,13.87
2023-05-09T02:49:35.823Z,13.71
2023-05-09T02:52:03.334Z,13.62
2023-05-09T02:54:32.133Z,13.66
2023-05-09T02:57:00.014Z,13.70
2023-05-09T02:59:27.841Z,13.77
2023-05-09T03:01:55.423Z,13.81
2023-05-09T03:04:22.946Z,13.75
2023-05-09T03:06:50.474Z,13.71
2023-05-09T03:09:17.929Z,13.81
2023-05-09T03:11:46.723Z,13.87
2023-05-09T03:14:15.248Z,13.87
2023-05-09T03:16:42.692Z,13.90
2023-05-09T03:19:10.482Z,13.88
2023-05-09T03:21:37.937Z,13.94
2023-05-09T03:24:06.007Z,13.96
2023-05-09T03:26:35.547Z,13.92
2023-05-09T03:29:04.525Z,13.89
2023-05-09T03:31:32.154Z,14.13
2023-05-09T03:33:59.669Z,14.00
2023-05-09T03:36:27.375Z,14.13
2023-05-09T03:38:54.835Z,14.24
2023-05-09T03:41:22.396Z,14.24
2023-05-09T03:43:49.855Z,14.19
2023-05-09T03:46:18.679Z,13.98
2023-05-09T03:48:46.195Z,13.97
2023-05-09T03:51:13.714Z,14.05
2023-05-09T03:53:41.167Z,13.94
2023-05-09T03:56:08.846Z,13.68
2023-05-09T03:58:36.332Z,13.67
2023-05-09T04:01:03.818Z,13.61
2023-05-09T04:03:32.917Z,13.57
2023-05-09T04:06:00.575Z,13.52
2023-05-09T04:08:28.373Z,13.45
2023-05-09T04:10:55.863Z,13.63
2023-05-09T04:13:23.531Z,13.64
2023-05-09T04:15:51.269Z,13.70
2023-05-09T04:18:18.743Z,13.77
2023-05-09T04:20:47.595Z,13.83
2023-05-09T04:23:15.033Z,13.84
2023-05-09T04:25:42.568Z,13.82
2023-05-09T04:28:10.013Z,13.85
2023-05-09T04:30:37.609Z,13.87
2023-05-09T04:33:05.485Z,13.97
2023-05-09T04:35:32.988Z,13.96
2023-05-09T04:38:01.754Z,14.03
2023-05-09T04:40:29.322Z,14.10
2023-05-09T04:42:57.470Z,14.16
2023-05-09T04:45:24.930Z,14.21
2023-05-09T04:47:52.506Z,14.26
2023-05-09T04:50:20.121Z,14.24
2023-05-09T04:52:47.571Z,14.26
2023-05-09T04:55:16.672Z,14.39
2023-05-09T04:57:44.210Z,14.38
2023-05-09T05:00:12.837Z,14.39
2023-05-09T05:02:40.403Z,14.45
2023-05-09T05:05:12.037Z,14.59
2023-05-09T05:07:40.448Z,14.65
2023-05-09T05:10:09.026Z,14.74
2023-05-09T05:12:37.878Z,14.84
2023-05-09T05:15:06.812Z,14.90
2023-05-09T05:17:34.276Z,15.00
2023-05-09T05:20:01.794Z,14.98
2023-05-09T05:22:31.546Z,14.98
2023-05-09T05:25:00.135Z,15.05
2023-05-09T05:27:27.638Z,15.11
2023-05-09T05:29:56.418Z,15.25
2023-05-09T05:32:23.984Z,15.41
2023-05-09T05:34:51.541Z,15.49
2023-05-09T05:37:19.056Z,15.79
2023-05-09T05:39:46.518Z,15.98
2023-05-09T05:42:13.980Z,15.96
2023-05-09T05:44:41.478Z,16.18
2023-05-09T05:47:10.436Z,16.40
2023-05-09T05:49:37.909Z,16.40
2023-05-09T05:52:05.660Z,16.47
2023-05-09T05:54:33.133Z,16.58
2023-05-09T05:57:00.567Z,16.79
2023-05-09T05:59:28.013Z,16.84
2023-05-09T06:01:55.452Z,16.61
2023-05-09T06:04:24.222Z,16.80
2023-05-09T06:06:51.711Z,16.90
2023-05-09T06:09:19.448Z,16.93
2023-05-09T06:11:46.899Z,16.94
2023-05-09T06:14:14.355Z,16.88
2023-05-09T06:16:41.848Z,16.96
2023-05-09T06:19:09.371Z,17.15
2023-05-09T06:21:38.210Z,17.11
2023-05-09T06:24:11.764Z,17.22
2023-05-09T06:26:44.688Z,17.26
2023-05-09T06:29:14.146Z,17.17
2023-05-09T06:31:41.656Z,17.27
2023-05-09T06:34:09.280Z,17.37
2023-05-09T06:36:38.094Z,17.36
2023-05-09T06:39:05.559Z,17.40
2023-05-09T06:41:33.019Z,17.60
2023-05-09T06:44:02.357Z,17.54
2023-05-09T06:46:29.853Z,17.63
2023-05-09T06:48:57.294Z,17.74
2023-05-09T06:51:24.743Z,17.66
2023-05-09T06:53:53.521Z,17.61
2023-05-09T06:56:22.633Z,17.75
2023-05-09T06:58:50.199Z,17.87
2023-05-09T07:01:17.947Z,18.08
2023-05-09T07:03:46.916Z,18.20
2023-05-09T07:06:14.591Z,18.13
2023-05-09T07:08:42.046Z,18.33
2023-05-09T07:11:10.834Z,18.45
2023-05-09T07:13:38.433Z,18.53
2023-05-09T07:16:06.763Z,18.47
2023-05-09T07:18:34.340Z,18.38
2023-05-09T07:21:01.774Z,18.17
2023-05-09T07:23:29.242Z,18.04
2023-05-09T07:25:58.101Z,18.03
2023-05-09T07:28:26.942Z,18.25
2023-05-09T07:30:56.501Z,18.35
2023-05-09T07:33:23.985Z,18.04
2023-05-09T07:35:52.863Z,17.82
2023-05-09T07:38:20.331Z,17.83
2023-05-09T07:40:48.038Z,18.04
2023-05-09T07:43:15.608Z,18.04
2023-05-09T07:45:44.654Z,17.93
2023-05-09T07:48:12.489Z,17.93
2023-05-09T07:50:40.653Z,17.89
2023-05-09T07:53:08.137Z,17.68
2023-05-09T07:55:36.317Z,17.56
2023-05-09T07:58:03.804Z,17.52
2023-05-09T08:00:31.322Z,17.58
2023-05-09T08:03:00.806Z,17.43
2023-05-09T08:05:28.549Z,17.44
2023-05-09T08:07:55.998Z,17.50
2023-05-09T08:10:23.850Z,17.39
2023-05-09T08:12:51.462Z,17.40
2023-05-09T08:15:19.080Z,17.35
2023-05-09T08:17:46.556Z,17.31
2023-05-09T08:20:15.395Z,17.32
2023-05-09T08:22:42.928Z,17.57
2023-05-09T08:25:10.845Z,17.72
2023-05-09T08:27:38.390Z,17.84
2023-05-09T08:30:07.329Z,17.85
2023-05-09T08:32:34.795Z,17.85
2023-05-09T08:35:02.296Z,17.99
2023-05-09T08:37:31.086Z,17.92
2023-05-09T08:39:58.563Z,18.00
2023-05-09T08:42:26.968Z,18.03
2023-05-09T08:44:54.427Z,18.25
2023-05-09T08:47:22.468Z,18.51
2023-05-09T08:49:51.259Z,18.73
2023-05-09T08:52:19.157Z,18.71
2023-05-09T08:54:48.053Z,18.63
2023-05-09T08:57:16.216Z,18.39
2023-05-09T08:59:43.692Z,18.25
2023-05-09T09:02:14.420Z,18.15
2023-05-09T09:04:42.058Z,18.04
2023-05-09T09:07:10.097Z,18.06
2023-05-09T09:09:38.293Z,18.06
2023-05-09T09:12:09.605Z,18.05
2023-05-09T09:14:39.379Z,18.23
2023-05-09T09:17:08.087Z,18.28
2023-05-09T09:19:36.659Z,18.32
2023-05-09T09:22:05.496Z,18.30
2023-05-09T09:24:33.205Z,18.17
2023-05-09T09:27:06.128Z,18.30
2023-05-09T09:29:35.645Z,18.41
2023-05-09T09:32:04.652Z,18.12
2023-05-09T09:34:32.206Z,18.24
2023-05-09T09:36:59.965Z,18.22
2023-05-09T09:39:27.502Z,18.22
2023-05-09T09:41:54.932Z,18.44
2023-05-09T09:44:23.626Z,18.62
2023-05-09T09:46:54.000Z,18.59
2023-05-09T09:49:23.301Z,18.77
2023-05-09T09:51:51.601Z,18.85
2023-05-09T09:54:20.568Z,18.77
2023-05-09T09:56:48.876Z,18.80
2023-05-09T09:59:18.301Z,19.03
2023-05-09T10:02:08.558Z,19.16
2023-05-09T10:04:37.354Z,19.13
2023-05-09T10:07:06.209Z,19.17
2023-05-09T10:09:35.146Z,19.02
2023-05-09T10:12:04.413Z,19.22
2023-05-09T10:14:35.114Z,19.41
2023-05-09T10:17:04.600Z,19.59
2023-05-09T10:19:33.994Z,19.70
2023-05-09T10:22:05.059Z,19.87
2023-05-09T10:24:36.661Z,20.01
2023-05-09T10:27:05.499Z,20.30
2023-05-09T10:29:36.698Z,20.48
2023-05-09T10:32:14.266Z,20.37
2023-05-09T10:34:45.470Z,20.52
2023-05-09T10:37:13.402Z,20.86
2023-05-09T10:39:41.516Z,20.29
2023-05-09T10:42:09.791Z,20.17
2023-05-09T10:44:38.433Z,20.14
2023-05-09T10:47:06.393Z,20.35
2023-05-09T10:49:36.348Z,20.19
2023-05-09T10:52:06.126Z,20.14
2023-05-09T10:54:33.683Z,20.14
2023-05-09T10:57:01.382Z,20.36
2023-05-09T10:59:37.664Z,20.67
2023-05-09T11:02:05.888Z,20.77
2023-05-09T11:04:33.678Z,20.92
2023-05-09T11:07:01.589Z,20.82
2023-05-09T11:09:35.425Z,20.96
2023-05-09T11:12:09.757Z,20.64
2023-05-09T11:14:42.402Z,20.62
2023-05-09T11:17:11.394Z,20.70
2023-05-09T11:19:59.236Z,20.43
2023-05-09T11:22:27.993Z,20.51
2023-05-09T11:25:04.549Z,20.42
2023-05-09T11:27:39.207Z,20.10
2023-05-09T11:30:08.827Z,19.61
2023-05-09T11:32:43.162Z,19.17
2023-05-09T11:35:12.480Z,19.11
2023-05-09T11:37:48.214Z,18.65
2023-05-09T11:40:18.263Z,18.69
2023-05-09T11:42:49.252Z,18.66
2023-05-09T11:45:17.885Z,18.69
2023-05-09T11:47:46.360Z,18.55
2023-05-09T11:50:15.073Z,18.31
2023-05-09T11:52:43.303Z,18.30
2023-05-09T11:55:13.017Z,18.55
2023-05-09T11:57:42.520Z,18.59
2023-05-09T12:00:11.568Z,18.41
2023-05-09T12:02:39.351Z,18.42
2023-05-09T12:05:11.267Z,18.25
2023-05-09T12:07:39.532Z,18.47
2023-05-09T12:10:09.013Z,18.51
2023-05-09T12:12:36.857Z,18.49
2023-05-09T12:15:08.582Z,18.47
2023-05-09T12:17:36.281Z,18.63
2023-05-09T12:20:05.782Z,19.21
2023-05-09T12:22:33.868Z,19.49
2023-05-09T12:25:03.804Z,19.68
2023-05-09T12:27:32.938Z,19.81
2023-05-09T12:30:01.411Z,19.89
2023-05-09T12:32:32.837Z,19.90
2023-05-09T12:35:01.420Z,19.86
2023-05-09T12:37:32.446Z,19.82
2023-05-09T12:40:04.690Z,19.78
2023-05-09T12:42:32.294Z,19.45
2023-05-09T12:44:59.985Z,19.52
2023-05-09T12:47:28.732Z,19.50
2023-05-09T12:49:59.806Z,19.69
2023-05-09T12:52:33.940Z,19.67
2023-05-09T12:55:06.720Z,19.61
2023-05-09T12:57:34.241Z,19.49
2023-05-09T13:00:03.844Z,19.38
2023-05-09T13:02:35.478Z,19.22
2023-05-09T13:05:10.218Z,19.07
2023-05-09T13:07:41.395Z,19.01
2023-05-09T13:10:12.846Z,18.71
2023-05-09T13:12:40.468Z,18.51
2023-05-09T13:15:09.896Z,18.65
2023-05-09T13:17:37.463Z,18.61
2023-05-09T13:20:05.541Z,18.51
2023-05-09T13:22:34.480Z,18.49
2023-05-09T13:25:02.009Z,18.55
2023-05-09T13:27:29.635Z,18.53
2023-05-09T13:29:57.177Z,18.70
2023-05-09T13:32:25.427Z,18.42
2023-05-09T13:34:53.237Z,18.73
2023-05-09T13:37:21.600Z,18.79
2023-05-09T13:39:50.438Z,19.02
2023-05-09T13:42:19.184Z,19.23
2023-05-09T13:44:46.835Z,19.46
2023-05-09T13:47:14.276Z,19.56
2023-05-09T13:49:41.731Z,19.53
2023-05-09T13:52:09.221Z,19.60
2023-05-09T13:54:37.029Z,19.66
2023-05-09T13:57:06.255Z,19.75
2023-05-09T13:59:33.702Z,19.89
2023-05-09T14:02:01.776Z,19.92
2023-05-09T14:04:30.042Z,19.96
2023-05-09T14:06:57.595Z,19.97
2023-05-09T14:09:26.180Z,19.79
2023-05-09T14:11:55.425Z,19.87
2023-05-09T14:14:25.406Z,19.87
2023-05-09T14:16:53.902Z,19.72
2023-05-09T14:19:21.430Z,19.73
2023-05-09T14:21:48.957Z,19.60
2023-05-09T14:24:16.688Z,19.63
2023-05-09T14:26:44.995Z,19.73
2023-05-09T14:29:12.481Z,19.81
2023-05-09T14:31:41.398Z,19.89
2023-05-09T14:34:09.280Z,19.87
2023-05-09T14:36:37.405Z,19.95
2023-05-09T14:39:05.361Z,20.01
2023-05-09T14:41:32.840Z,19.84
2023-05-09T14:44:00.314Z,19.72
2023-05-09T14:46:27.917Z,19.86
2023-05-09T14:49:02.125Z,19.80
2023-05-09T14:51:29.585Z,19.70
2023-05-09T14:53:57.048Z,19.80
2023-05-09T14:56:24.532Z,19.60
2023-05-09T14:58:51.986Z,19.53
2023-05-09T15:01:19.665Z,19.20
2023-05-09T15:03:48.040Z,18.91
2023-05-09T15:06:16.909Z,18.73
2023-05-09T15:08:44.384Z,18.69
2023-05-09T15:11:11.875Z,18.70
2023-05-09T15:13:39.376Z,18.80
2023-05-09T15:16:07.030Z,18.91
2023-05-09T15:18:34.631Z,18.87
2023-05-09T15:21:02.156Z,18.88
2023-05-09T15:23:31.024Z,18.94
2023-05-09T15:25:58.616Z,18.96
2023-05-09T15:28:26.392Z,18.92
2023-05-09T15:30:54.123Z,18.72
2023-05-09T15:33:21.686Z,18.36
2023-05-09T15:35:50.085Z,18.05
2023-05-09T15:38:18.027Z,18.02
2023-05-09T15:40:46.817Z,17.71
2023-05-09T15:43:14.276Z,17.51
2023-05-09T15:45:45.441Z,17.40
2023-05-09T15:48:13.327Z,17.41
2023-05-09T15:50:41.065Z,17.08
2023-05-09T15:53:08.522Z,17.41
2023-05-09T15:55:36.317Z,17.73
2023-05-09T15:58:05.106Z,17.93
2023-05-09T16:00:32.854Z,17.91
2023-05-09T16:03:00.408Z,17.74
2023-05-09T16:05:28.000Z,17.25
2023-05-09T16:07:55.524Z,17.23
2023-05-09T16:10:22.982Z,17.15
2023-05-09T16:12:50.501Z,17.18
2023-05-09T16:15:19.548Z,17.29
2023-05-09T16:17:47.036Z,17.25
2023-05-09T16:20:15.098Z,17.31
2023-05-09T16:22:42.942Z,17.28
2023-05-09T16:25:11.151Z,17.19
2023-05-09T16:27:38.644Z,17.13
2023-05-09T16:30:07.651Z,17.09
2023-05-09T16:32:36.817Z,16.99
2023-05-09T16:35:04.564Z,17.06
2023-05-09T16:37:33.513Z,17.24
2023-05-09T16:40:04.277Z,17.30
2023-05-09T16:42:31.807Z,17.15
2023-05-09T16:44:59.253Z,17.05
2023-05-09T16:47:26.781Z,17.08
2023-05-09T16:49:55.649Z,16.97
2023-05-09T16:52:23.849Z,17.00
2023-05-09T16:54:52.228Z,17.11
2023-05-09T16:57:19.673Z,16.87
2023-05-09T16:59:47.299Z,16.92
2023-05-09T17:02:14.760Z,17.12
2023-05-09T17:04:42.297Z,17.13
2023-05-09T17:07:12.606Z,17.05
2023-05-09T17:09:40.203Z,17.27
2023-05-09T17:12:08.068Z,17.17
2023-05-09T17:14:35.621Z,17.10
2023-05-09T17:17:03.157Z,16.85
2023-05-09T17:19:32.586Z,16.90
2023-05-09T17:22:04.138Z,17.10
2023-05-09T17:24:33.108Z,17.29
2023-05-09T17:27:01.205Z,17.40
2023-05-09T17:29:29.100Z,17.40
2023-05-09T17:31:57.441Z,17.43
2023-05-09T17:34:25.272Z,17.46
2023-05-09T17:36:52.762Z,17.05
2023-05-09T17:39:20.465Z,16.92
2023-05-09T17:41:49.317Z,16.82
2023-05-09T17:44:16.884Z,16.80
2023-05-09T17:46:44.412Z,16.85
2023-05-09T17:49:13.839Z,17.10
2023-05-09T17:51:41.389Z,17.24
2023-05-09T17:54:09.049Z,17.40
2023-05-09T17:56:36.527Z,17.38
2023-05-09T17:59:05.436Z,16.94
2023-05-09T18:01:33.000Z,16.67
2023-05-09T18:04:00.650Z,16.59
2023-05-09T18:06:28.898Z,16.71
2023-05-09T18:08:56.487Z,16.80
2023-05-09T18:11:24.525Z,16.84
2023-05-09T18:13:51.993Z,16.76
2023-05-09T18:16:20.864Z,16.48
2023-05-09T18:18:48.407Z,16.32
2023-05-09T18:21:15.895Z,16.46
2023-05-09T18:23:43.337Z,16.37
2023-05-09T18:26:10.815Z,16.51
2023-05-09T18:28:40.076Z,16.47
2023-05-09T18:31:10.021Z,16.00
2023-05-09T18:33:39.068Z,16.08
2023-05-09T18:36:08.791Z,15.88
2023-05-09T18:38:38.254Z,15.58
2023-05-09T18:41:07.039Z,15.55
2023-05-09T18:43:35.032Z,15.58
2023-05-09T18:46:03.160Z,15.58
2023-05-09T18:52:00.242Z,15.86
2023-05-09T18:54:27.678Z,15.68
2023-05-09T18:56:55.102Z,15.61
2023-05-09T18:59:23.447Z,15.57
2023-05-09T19:01:51.039Z,15.53
2023-05-09T19:04:19.450Z,15.59
2023-05-09T19:06:47.179Z,15.50
2023-05-09T19:09:16.542Z,15.50
2023-05-09T19:11:44.027Z,15.61
2023-05-09T19:14:11.491Z,15.69
2023-05-09T19:16:39.004Z,15.82
2023-05-09T19:19:06.489Z,15.88
2023-05-09T19:21:35.426Z,15.79
2023-05-09T19:24:04.617Z,15.69
2023-05-09T19:26:33.493Z,15.63
2023-05-09T19:29:04.074Z,15.63
2023-05-09T19:31:31.707Z,15.59
2023-05-09T19:33:59.645Z,15.35
2023-05-09T19:36:27.198Z,15.43
2023-05-09T19:38:54.623Z,15.39
2023-05-09T19:41:22.417Z,15.28
2023-05-09T19:43:51.576Z,15.16
2023-05-09T19:46:19.241Z,15.22
2023-05-09T19:48:46.775Z,15.23
2023-05-09T19:51:15.370Z,15.11
2023-05-09T19:53:42.922Z,15.25
2023-05-09T19:56:10.435Z,15.21
2023-05-09T19:58:37.904Z,15.12
2023-05-09T20:01:07.249Z,15.27
2023-05-09T20:03:35.066Z,15.42
2023-05-09T20:06:02.634Z,15.45
2023-05-09T20:08:30.765Z,15.45
2023-05-09T20:10:59.902Z,15.36
2023-05-09T20:13:27.795Z,15.52
2023-05-09T20:15:55.385Z,15.66
2023-05-09T20:18:24.225Z,15.57
2023-05-09T20:20:51.813Z,15.53
2023-05-09T20:23:19.332Z,15.50
2023-05-09T20:25:46.797Z,15.51
2023-05-09T20:28:19.512Z,15.57
2023-05-09T20:30:47.012Z,15.56
2023-05-09T20:33:14.467Z,15.51
2023-05-09T20:35:43.801Z,15.40
2023-05-09T20:38:11.295Z,15.41
2023-05-09T20:40:39.193Z,15.45
2023-05-09T20:43:06.648Z,15.39
2023-05-09T20:45:34.240Z,15.39
2023-05-09T20:48:03.912Z,15.41
2023-05-09T20:50:31.443Z,15.43
2023-05-09T20:53:00.259Z,15.38
2023-05-09T20:55:27.780Z,15.33
2023-05-09T20:57:55.326Z,15.28
2023-05-09T21:00:22.776Z,15.27
2023-05-09T21:02:51.446Z,15.29
2023-05-09T21:05:18.971Z,15.35
2023-05-09T21:07:46.444Z,15.22
2023-05-09T21:10:15.780Z,15.14
2023-05-09T21:12:43.555Z,14.97
2023-05-09T21:15:11.776Z,14.98
2023-05-09T21:17:39.261Z,14.96
2023-05-09T21:20:08.432Z,14.95
2023-05-09T21:22:35.981Z,14.90
2023-05-09T21:25:03.455Z,14.88
2023-05-09T21:27:32.326Z,14.98
2023-05-09T21:29:59.902Z,14.98
2023-05-09T21:32:28.439Z,15.00
2023-05-09T21:34:55.918Z,14.95
2023-05-09T21:37:23.463Z,14.98
2023-05-09T21:39:50.959Z,14.88
2023-05-09T21:42:18.413Z,14.91
2023-05-09T21:44:47.201Z,14.86
2023-05-09T21:47:14.749Z,14.89
2023-05-09T21:49:42.257Z,14.97
2023-05-09T21:52:09.935Z,14.92
2023-05-09T21:54:37.430Z,14.95
2023-05-09T21:57:04.936Z,14.87
2023-05-09T21:59:32.829Z,14.84
2023-05-09T22:02:01.677Z,14.85
2023-05-09T22:04:29.215Z,14.81
2023-05-09T22:06:56.705Z,14.81
2023-05-09T22:09:24.359Z,14.81
2023-05-09T22:11:52.926Z,14.74
2023-05-09T22:14:20.375Z,14.74
2023-05-09T22:16:47.891Z,14.72
2023-05-09T22:19:17.367Z,14.74
2023-05-09T22:21:45.136Z,14.61
2023-05-09T22:24:13.007Z,14.78
2023-05-09T22:26:40.493Z,14.74
2023-05-09T22:29:07.961Z,14.62
2023-05-09T22:31:35.837Z,14.63
2023-05-09T22:34:03.537Z,14.61
2023-05-09T22:36:33.225Z,14.72
2023-05-09T22:39:00.780Z,14.65
2023-05-09T22:41:28.414Z,14.64
2023-05-09T22:43:55.870Z,14.61
2023-05-09T22:46:23.444Z,14.68
2023-05-09T22:48:50.962Z,14.69
2023-05-09T22:51:18.431Z,14.76
2023-05-09T22:53:47.213Z,14.70
2023-05-09T22:56:14.697Z,14.64
2023-05-09T22:58:42.136Z,14.74
2023-05-09T23:01:09.616Z,14.65
2023-05-09T23:03:37.185Z,14.73
2023-05-09T23:06:04.993Z,14.74
2023-05-09T23:08:32.455Z,14.70
2023-05-09T23:11:01.241Z,14.63
2023-05-09T23:13:28.797Z,14.62
2023-05-09T23:15:56.372Z,14.59
2023-05-09T23:18:23.904Z,14.72
2023-05-09T23:20:51.591Z,14.85
2023-05-09T23:23:19.066Z,14.66
2023-05-09T23:25:46.520Z,14.66
2023-05-09T23:28:15.460Z,14.54
2023-05-09T23:30:42.939Z,14.56
2023-05-09T23:33:10.467Z,14.60
2023-05-09T23:35:37.916Z,14.29
2023-05-09T23:38:05.405Z,14.42
2023-05-09T23:40:32.857Z,14.39
2023-05-09T23:43:00.302Z,14.29
2023-05-09T23:45:29.111Z,14.32
2023-05-09T23:47:57.030Z,14.36
2023-05-09T23:50:24.530Z,14.37
2023-05-09T23:52:51.997Z,14.09
2023-05-09T23:55:19.504Z,14.17
2023-05-09T23:57:47.023Z,13.98
